createdAt,value
2019-05-26T00:00:29.496Z,73.18
2019-05-26T00:02:56.695Z,73.14
2019-05-26T00:05:24.127Z,72.97
2019-05-26T00:07:51.021Z,73.19
2019-05-26T00:10:18.339Z,73.63
2019-05-26T00:12:45.631Z,73.48
2019-05-26T00:15:13.213Z,73.36
2019-05-26T00:17:40.211Z,73.62
2019-05-26T00:20:08.731Z,73.68
2019-05-26T00:22:35.622Z,73.68
2019-05-26T00:25:05.623Z,73.86
2019-05-26T00:27:32.715Z,73.99
2019-05-26T00:29:59.827Z,73.86
2019-05-26T00:32:46.055Z,73.98
2019-05-26T00:35:13.567Z,73.77
2019-05-26T00:37:49.002Z,74.56
2019-05-26T00:40:10.637Z,74.12
2019-05-26T00:42:38.276Z,74.19
2019-05-26T00:45:07.425Z,74.12
2019-05-26T00:47:34.874Z,74.22
2019-05-26T00:50:05.319Z,74.46
2019-05-26T00:52:32.350Z,74.70
2019-05-26T00:54:59.816Z,74.92
2019-05-26T00:57:27.054Z,74.65
2019-05-26T00:59:54.538Z,74.52
2019-05-26T01:02:21.866Z,74.38
2019-05-26T01:04:49.448Z,74.53
2019-05-26T01:07:16.650Z,74.45
2019-05-26T01:09:43.791Z,74.59
2019-05-26T01:12:11.307Z,74.69
2019-05-26T01:14:38.932Z,74.46
2019-05-26T01:17:06.276Z,74.37
2019-05-26T01:19:33.602Z,74.44
2019-05-26T01:22:01.452Z,74.33
2019-05-26T01:24:28.960Z,74.35
2019-05-26T01:26:56.426Z,74.39
2019-05-26T01:29:23.520Z,74.26
2019-05-26T01:31:50.657Z,74.48
2019-05-26T01:34:18.280Z,74.36
2019-05-26T01:36:46.023Z,74.42
2019-05-26T01:39:13.432Z,74.43
2019-05-26T01:41:40.807Z,74.71
2019-05-26T01:44:08.144Z,74.84
2019-05-26T01:46:35.145Z,74.94
2019-05-26T01:49:02.699Z,74.95
2019-05-26T01:51:29.767Z,74.96
2019-05-26T01:53:57.529Z,74.89
2019-05-26T01:56:24.642Z,75.04
2019-05-26T01:58:52.940Z,74.72
2019-05-26T02:01:20.078Z,74.83
2019-05-26T02:03:47.092Z,75.03
2019-05-26T02:06:14.332Z,75.15
2019-05-26T02:08:41.596Z,75.08
2019-05-26T02:11:08.588Z,75.27
2019-05-26T02:13:35.938Z,75.57
2019-05-26T02:16:03.976Z,75.61
2019-05-26T02:18:31.205Z,75.66
2019-05-26T02:20:59.345Z,75.79
2019-05-26T02:23:26.894Z,75.62
2019-05-26T02:25:54.114Z,75.73
2019-05-26T02:28:21.366Z,75.62
2019-05-26T02:30:48.837Z,75.73
2019-05-26T02:33:16.244Z,75.72
2019-05-26T02:35:43.769Z,75.71
2019-05-26T02:38:11.070Z,75.52
2019-05-26T02:40:38.696Z,75.49
2019-05-26T02:43:06.454Z,75.37
2019-05-26T02:45:34.132Z,75.36
2019-05-26T02:48:01.593Z,75.40
2019-05-26T02:50:29.199Z,75.24
2019-05-26T02:53:15.239Z,75.39
2019-05-26T02:55:43.319Z,76.86
2019-05-26T02:58:11.168Z,75.70
2019-05-26T03:00:46.117Z,75.61
2019-05-26T03:03:15.602Z,75.38
2019-05-26T03:05:44.432Z,75.40
2019-05-26T03:08:13.895Z,75.44
2019-05-26T03:10:41.774Z,75.35
2019-05-26T03:13:14.746Z,74.86
2019-05-26T03:15:44.478Z,75.00
2019-05-26T03:18:11.572Z,74.86
2019-05-26T03:20:40.218Z,75.09
2019-05-26T03:23:08.329Z,75.13
2019-05-26T03:25:36.886Z,75.43
2019-05-26T03:28:07.629Z,75.44
2019-05-26T03:30:37.200Z,75.56
2019-05-26T03:33:04.698Z,75.41
2019-05-26T03:35:32.044Z,75.61
2019-05-26T03:37:59.257Z,75.75
2019-05-26T03:40:26.360Z,75.74
2019-05-26T03:42:53.289Z,75.80
2019-05-26T03:45:41.320Z,75.60
2019-05-26T03:48:08.426Z,75.62
2019-05-26T03:50:36.084Z,75.54
2019-05-26T03:53:03.217Z,75.40
2019-05-26T03:55:30.382Z,75.40
2019-05-26T03:57:57.517Z,75.49
2019-05-26T04:00:25.042Z,75.45
2019-05-26T04:02:51.983Z,75.43
2019-05-26T04:05:19.036Z,75.78
2019-05-26T04:07:45.965Z,75.73
2019-05-26T04:10:13.860Z,75.94
2019-05-26T04:12:40.901Z,76.02
2019-05-26T04:15:08.327Z,75.96
2019-05-26T04:17:35.493Z,75.71
2019-05-26T04:20:03.920Z,75.73
2019-05-26T04:22:30.820Z,75.84
2019-05-26T04:24:57.840Z,76.17
2019-05-26T04:27:25.036Z,76.12
2019-05-26T04:29:52.057Z,75.90
2019-05-26T04:32:18.954Z,75.53
2019-05-26T04:34:45.926Z,76.55
2019-05-26T04:37:12.847Z,75.98
2019-05-26T04:39:40.031Z,75.91
2019-05-26T04:42:07.338Z,75.44
2019-05-26T04:44:34.347Z,75.58
2019-05-26T04:47:01.543Z,75.15
2019-05-26T04:49:28.821Z,75.04
2019-05-26T04:51:55.943Z,74.68
2019-05-26T04:54:23.115Z,74.71
2019-05-26T04:56:50.070Z,74.61
2019-05-26T04:59:17.196Z,74.39
2019-05-26T05:01:44.195Z,74.10
2019-05-26T05:04:11.540Z,73.90
2019-05-26T05:06:38.744Z,73.18
2019-05-26T05:09:06.740Z,72.73
2019-05-26T05:11:35.108Z,72.09
2019-05-26T05:14:03.015Z,71.32
2019-05-26T05:16:30.080Z,71.56
2019-05-26T05:18:57.484Z,71.64
2019-05-26T05:21:24.585Z,71.10
2019-05-26T05:23:51.987Z,70.19
2019-05-26T05:26:19.520Z,70.09
2019-05-26T05:28:46.733Z,69.95
2019-05-26T05:31:15.204Z,69.72
2019-05-26T05:33:42.299Z,70.21
2019-05-26T05:36:09.402Z,69.54
2019-05-26T05:38:36.643Z,69.17
2019-05-26T05:41:03.868Z,69.39
2019-05-26T05:43:31.120Z,68.86
2019-05-26T05:45:58.291Z,69.59
2019-05-26T05:48:25.309Z,69.39
2019-05-26T05:50:52.973Z,69.01
2019-05-26T05:53:19.874Z,68.06
2019-05-26T05:55:46.911Z,67.71
2019-05-26T05:58:13.846Z,67.18
2019-05-26T06:00:41.317Z,66.25
2019-05-26T06:03:08.315Z,66.73
2019-05-26T06:05:35.336Z,65.78
2019-05-26T06:08:02.732Z,65.69
2019-05-26T06:10:29.743Z,64.43
2019-05-26T06:12:56.751Z,64.50
2019-05-26T06:15:23.978Z,64.06
2019-05-26T06:17:50.906Z,62.67
2019-05-26T06:20:19.720Z,61.64
2019-05-26T06:22:46.624Z,61.91
2019-05-26T06:25:14.401Z,60.92
2019-05-26T06:27:41.529Z,61.70
2019-05-26T06:30:09.398Z,59.95
2019-05-26T06:32:36.415Z,59.55
2019-05-26T06:35:04.358Z,57.67
2019-05-26T06:37:31.356Z,58.45
2019-05-26T06:39:59.316Z,58.72
2019-05-26T06:42:26.360Z,57.91
2019-05-26T06:44:54.218Z,58.25
2019-05-26T06:47:21.547Z,57.88
2019-05-26T06:49:48.464Z,58.58
2019-05-26T06:52:15.405Z,58.47
2019-05-26T06:54:42.419Z,56.45
2019-05-26T06:57:09.619Z,57.07
2019-05-26T06:59:36.695Z,57.20
2019-05-26T07:02:03.943Z,56.66
2019-05-26T07:04:30.845Z,56.92
2019-05-26T07:06:58.116Z,57.48
2019-05-26T07:09:25.347Z,58.09
2019-05-26T07:11:59.716Z,57.87
2019-05-26T07:14:21.848Z,57.52
2019-05-26T07:16:48.748Z,57.72
2019-05-26T07:19:15.779Z,57.79
2019-05-26T07:21:43.091Z,56.50
2019-05-26T07:24:10.128Z,56.50
2019-05-26T07:26:37.067Z,55.81
2019-05-26T07:29:04.113Z,54.96
2019-05-26T07:31:31.323Z,55.15
2019-05-26T07:33:58.527Z,55.05
2019-05-26T07:36:25.452Z,54.80
2019-05-26T07:38:52.472Z,54.37
2019-05-26T07:41:19.635Z,54.27
2019-05-26T07:43:46.448Z,53.84
2019-05-26T07:46:13.413Z,55.27
2019-05-26T07:48:40.417Z,54.17
2019-05-26T07:51:07.557Z,54.82
2019-05-26T07:53:34.700Z,52.81
2019-05-26T07:56:01.724Z,54.00
2019-05-26T07:58:28.872Z,53.35
2019-05-26T08:00:56.159Z,52.00
2019-05-26T08:03:23.410Z,52.46
2019-05-26T08:05:50.379Z,51.67
2019-05-26T08:08:17.381Z,52.00
2019-05-26T08:10:44.409Z,51.19
2019-05-26T08:13:11.626Z,50.92
2019-05-26T08:15:38.679Z,51.39
2019-05-26T08:18:05.789Z,51.61
2019-05-26T08:20:33.481Z,51.56
2019-05-26T08:23:00.390Z,51.66
2019-05-26T08:25:27.438Z,51.38
2019-05-26T08:27:54.363Z,51.54
2019-05-26T08:30:21.890Z,51.92
2019-05-26T08:32:49.253Z,51.45
2019-05-26T08:35:16.255Z,51.40
2019-05-26T08:37:43.223Z,51.90
2019-05-26T08:40:17.027Z,52.62
2019-05-26T08:42:46.298Z,52.15
2019-05-26T08:45:13.462Z,51.25
2019-05-26T08:47:40.651Z,51.90
2019-05-26T08:50:08.271Z,51.75
2019-05-26T08:52:35.426Z,50.46
2019-05-26T08:55:05.786Z,50.83
2019-05-26T08:57:32.683Z,51.28
2019-05-26T08:59:59.789Z,50.39
2019-05-26T09:02:26.873Z,50.65
2019-05-26T09:04:53.895Z,50.52
2019-05-26T09:07:20.935Z,49.86
2019-05-26T09:09:47.987Z,50.27
2019-05-26T09:12:15.429Z,50.86
2019-05-26T09:14:42.336Z,51.55
2019-05-26T09:17:09.443Z,51.13
2019-05-26T09:19:36.279Z,49.74
2019-05-26T09:22:03.611Z,50.59
2019-05-26T09:24:30.618Z,50.05
2019-05-26T09:26:57.765Z,51.25
2019-05-26T09:29:24.758Z,49.97
2019-05-26T09:31:52.123Z,50.50
2019-05-26T09:34:19.167Z,50.54
2019-05-26T09:36:46.076Z,50.39
2019-05-26T09:39:13.041Z,50.17
2019-05-26T09:41:39.963Z,50.52
2019-05-26T09:44:06.897Z,51.50
2019-05-26T09:46:33.801Z,51.42
2019-05-26T09:49:01.197Z,50.74
2019-05-26T09:51:28.875Z,51.15
2019-05-26T09:54:01.616Z,50.57
2019-05-26T09:56:24.846Z,50.57
2019-05-26T09:58:51.681Z,50.67
2019-05-26T10:01:18.686Z,50.20
2019-05-26T10:03:45.839Z,49.89
2019-05-26T10:06:12.952Z,49.86
2019-05-26T10:08:40.520Z,50.32
2019-05-26T10:11:07.611Z,49.52
2019-05-26T10:13:34.819Z,49.55
2019-05-26T10:16:01.816Z,49.88
2019-05-26T10:18:28.832Z,50.52
2019-05-26T10:20:55.888Z,50.28
2019-05-26T10:23:22.891Z,50.47
2019-05-26T10:25:50.303Z,50.33
2019-05-26T10:28:17.309Z,50.50
2019-05-26T10:30:44.414Z,50.90
2019-05-26T10:33:11.391Z,50.69
2019-05-26T10:35:38.293Z,50.13
2019-05-26T10:38:05.317Z,49.85
2019-05-26T10:40:32.327Z,51.00
2019-05-26T10:42:59.590Z,50.66
2019-05-26T10:45:26.592Z,50.35
2019-05-26T10:47:53.859Z,50.64
2019-05-26T10:50:21.481Z,51.37
2019-05-26T10:52:48.321Z,51.08
2019-05-26T10:55:15.513Z,51.05
2019-05-26T10:57:42.473Z,51.51
2019-05-26T11:00:10.148Z,51.93
2019-05-26T11:02:37.161Z,51.92
2019-05-26T11:05:05.574Z,52.49
2019-05-26T11:07:32.706Z,52.03
2019-05-26T11:09:59.755Z,52.96
2019-05-26T11:12:26.679Z,52.70
2019-05-26T11:14:53.743Z,52.88
2019-05-26T11:17:21.269Z,52.78
2019-05-26T11:19:48.151Z,54.01
2019-05-26T11:22:15.388Z,53.64
2019-05-26T11:24:42.428Z,53.14
2019-05-26T11:27:12.678Z,53.74
2019-05-26T11:36:52.229Z,54.01
2019-05-26T11:39:19.275Z,54.92
2019-05-26T11:41:54.380Z,55.03
2019-05-26T11:44:17.790Z,55.30
2019-05-26T11:46:43.963Z,54.47
2019-05-26T11:49:11.054Z,54.61
2019-05-26T11:51:38.389Z,54.74
2019-05-26T11:54:05.566Z,55.19
2019-05-26T11:56:32.592Z,56.60
2019-05-26T11:58:59.736Z,56.89
2019-05-26T12:01:26.808Z,57.38
2019-05-26T12:03:53.841Z,57.90
2019-05-26T12:06:20.992Z,58.53
2019-05-26T12:08:48.175Z,58.74
2019-05-26T12:11:15.303Z,58.64
2019-05-26T12:13:42.468Z,58.13
2019-05-26T12:16:10.331Z,57.40
2019-05-26T12:18:37.363Z,57.88
2019-05-26T12:21:04.404Z,56.37
2019-05-26T12:23:31.403Z,55.89
2019-05-26T12:25:58.735Z,56.37
2019-05-26T12:28:25.631Z,55.31
2019-05-26T12:30:52.831Z,56.07
2019-05-26T12:33:19.823Z,56.36
2019-05-26T12:35:46.824Z,55.83
2019-05-26T12:38:14.068Z,55.43
2019-05-26T12:40:41.603Z,56.53
2019-05-26T12:43:08.794Z,56.18
2019-05-26T12:45:35.804Z,56.42
2019-05-26T12:48:03.636Z,56.74
2019-05-26T12:50:31.104Z,56.93
2019-05-26T12:52:58.035Z,56.71
2019-05-26T12:55:24.947Z,56.78
2019-05-26T12:57:52.067Z,56.62
2019-05-26T13:00:19.318Z,56.42
2019-05-26T13:02:46.390Z,56.27
2019-05-26T13:05:14.246Z,56.97
2019-05-26T13:07:41.273Z,56.80
2019-05-26T13:10:09.193Z,57.00
2019-05-26T13:12:36.279Z,56.49
2019-05-26T13:15:10.499Z,56.28
2019-05-26T13:17:37.631Z,56.14
2019-05-26T13:20:06.351Z,56.05
2019-05-26T13:22:33.275Z,56.88
2019-05-26T13:25:00.588Z,56.77
2019-05-26T13:27:27.847Z,56.36
2019-05-26T13:29:54.870Z,56.29
2019-05-26T13:32:21.806Z,56.66
2019-05-26T13:34:48.714Z,56.31
2019-05-26T13:37:15.748Z,55.92
2019-05-26T13:39:42.827Z,56.32
2019-05-26T13:42:09.968Z,56.15
2019-05-26T13:44:36.960Z,57.51
2019-05-26T13:47:04.275Z,57.70
2019-05-26T13:49:31.387Z,58.20
2019-05-26T13:51:59.058Z,57.96
2019-05-26T13:54:26.107Z,58.15
2019-05-26T13:56:53.212Z,57.00
2019-05-26T13:59:20.492Z,56.50
2019-05-26T14:01:47.486Z,56.34
2019-05-26T14:04:14.534Z,55.60
2019-05-26T14:06:41.683Z,55.51
2019-05-26T14:09:09.201Z,56.10
2019-05-26T14:11:36.299Z,55.55
2019-05-26T14:14:03.851Z,56.00
2019-05-26T14:16:32.987Z,55.68
2019-05-26T14:19:02.076Z,55.96
2019-05-26T14:21:28.986Z,56.03
2019-05-26T14:23:55.987Z,56.54
2019-05-26T14:26:23.208Z,56.92
2019-05-26T14:28:50.406Z,57.45
2019-05-26T14:31:17.563Z,57.61
2019-05-26T14:33:44.640Z,57.72
2019-05-26T14:36:11.803Z,57.45
2019-05-26T14:38:43.111Z,55.76
2019-05-26T14:41:07.572Z,56.02
2019-05-26T14:43:34.650Z,55.44
2019-05-26T14:46:01.773Z,54.92
2019-05-26T14:48:29.152Z,54.98
2019-05-26T14:50:56.163Z,54.47
2019-05-26T14:53:23.654Z,53.57
2019-05-26T14:55:50.504Z,53.61
2019-05-26T14:58:17.668Z,53.97
2019-05-26T15:00:44.763Z,54.59
2019-05-26T15:03:12.003Z,54.72
2019-05-26T15:05:39.255Z,54.50
2019-05-26T15:08:06.563Z,54.62
2019-05-26T15:10:33.834Z,55.33
2019-05-26T15:13:00.933Z,56.09
2019-05-26T15:15:28.132Z,55.41
2019-05-26T15:17:55.273Z,55.50
2019-05-26T15:20:22.420Z,55.58
2019-05-26T15:31:13.485Z,55.36
2019-05-26T15:33:40.440Z,56.15
2019-05-26T15:36:07.571Z,56.19
2019-05-26T15:38:43.174Z,56.21
2019-05-26T15:41:03.759Z,55.32
2019-05-26T15:43:30.895Z,55.58
2019-05-26T15:45:57.935Z,57.00
2019-05-26T15:48:25.583Z,55.44
2019-05-26T15:50:52.502Z,55.39
2019-05-26T15:53:19.647Z,55.45
2019-05-26T15:55:46.585Z,55.71
2019-05-26T15:58:13.632Z,55.52
2019-05-26T16:00:40.592Z,55.38
2019-05-26T16:03:07.764Z,55.04
2019-05-26T16:05:34.660Z,54.31
2019-05-26T16:08:02.149Z,54.87
2019-05-26T16:10:28.943Z,54.76
2019-05-26T16:12:55.910Z,54.83
2019-05-26T16:15:23.197Z,55.20
2019-05-26T16:17:50.271Z,55.29
2019-05-26T16:20:17.775Z,55.42
2019-05-26T16:22:44.803Z,56.26
2019-05-26T16:25:12.241Z,57.33
2019-05-26T16:27:39.243Z,56.89
2019-05-26T16:30:07.004Z,57.04
2019-05-26T16:32:34.020Z,56.92
2019-05-26T16:35:00.881Z,56.86
2019-05-26T16:37:27.713Z,57.08
2019-05-26T16:39:56.017Z,57.00
2019-05-26T16:42:23.441Z,58.96
2019-05-26T16:44:50.356Z,59.85
2019-05-26T16:47:17.421Z,59.63
2019-05-26T16:49:44.332Z,60.12
2019-05-26T16:52:11.240Z,59.55
2019-05-26T16:54:38.421Z,60.15
2019-05-26T16:57:05.465Z,59.55
2019-05-26T16:59:32.479Z,59.57
2019-05-26T17:01:59.433Z,59.57
2019-05-26T17:04:26.745Z,59.52
2019-05-26T17:06:53.878Z,59.39
2019-05-26T17:09:21.185Z,59.28
2019-05-26T17:11:48.205Z,59.28
2019-05-26T17:14:15.298Z,59.02
2019-05-26T17:16:42.172Z,59.07
2019-05-26T17:19:09.357Z,60.62
2019-05-26T17:21:36.482Z,60.18
2019-05-26T17:24:04.011Z,60.59
2019-05-26T17:26:31.123Z,60.75
2019-05-26T17:28:58.063Z,61.24
2019-05-26T17:31:25.002Z,61.90
2019-05-26T17:33:52.155Z,61.85
2019-05-26T17:36:19.505Z,61.71
2019-05-26T17:38:46.498Z,61.77
2019-05-26T17:41:13.515Z,62.12
2019-05-26T17:43:40.726Z,61.68
2019-05-26T17:46:08.044Z,62.55
2019-05-26T17:48:35.035Z,62.02
2019-05-26T17:51:01.934Z,62.59
2019-05-26T17:53:29.195Z,62.60
2019-05-26T17:55:56.259Z,63.24
2019-05-26T17:58:32.200Z,63.06
2019-05-26T18:01:20.964Z,62.95
2019-05-26T18:03:47.973Z,62.47
2019-05-26T18:06:15.218Z,62.20
2019-05-26T18:08:42.521Z,62.47
2019-05-26T18:11:09.520Z,63.12
2019-05-26T18:13:36.444Z,64.10
2019-05-26T18:16:03.649Z,64.34
2019-05-26T18:18:31.020Z,65.56
2019-05-26T18:20:57.960Z,65.84
2019-05-26T18:23:24.851Z,66.00
2019-05-26T18:25:51.804Z,66.64
2019-05-26T18:28:18.720Z,65.78
2019-05-26T18:30:45.766Z,66.31
2019-05-26T18:33:12.911Z,67.11
2019-05-26T18:35:40.431Z,67.00
2019-05-26T18:38:07.441Z,67.82
2019-05-26T18:40:34.256Z,67.41
2019-05-26T18:43:01.202Z,67.83
2019-05-26T18:45:28.420Z,67.34
2019-05-26T18:48:03.021Z,67.52
2019-05-26T18:50:25.163Z,67.42
2019-05-26T18:52:52.008Z,67.32
2019-05-26T18:55:19.013Z,67.42
2019-05-26T18:57:46.223Z,66.96
2019-05-26T19:00:13.742Z,66.93
2019-05-26T19:02:41.471Z,66.80
2019-05-26T19:05:08.809Z,66.71
2019-05-26T19:07:35.928Z,66.73
2019-05-26T19:10:05.979Z,66.38
2019-05-26T19:12:33.121Z,66.24
2019-05-26T19:15:00.255Z,66.35
2019-05-26T19:17:27.461Z,66.15
2019-05-26T19:19:54.438Z,66.21
2019-05-26T19:22:21.683Z,66.43
2019-05-26T19:24:48.872Z,66.79
2019-05-26T19:27:16.222Z,66.70
2019-05-26T19:29:43.257Z,66.75
2019-05-26T19:32:10.485Z,67.01
2019-05-26T19:34:37.656Z,67.04
2019-05-26T19:37:07.533Z,67.37
2019-05-26T19:39:34.586Z,67.77
2019-05-26T19:42:01.551Z,67.63
2019-05-26T19:44:28.863Z,68.02
2019-05-26T19:46:55.959Z,68.24
2019-05-26T19:49:22.964Z,68.63
2019-05-26T19:51:50.055Z,68.89
2019-05-26T19:54:17.525Z,69.04
2019-05-26T19:56:44.470Z,68.84
2019-05-26T19:59:11.643Z,69.07
2019-05-26T20:01:38.791Z,69.29
2019-05-26T20:04:05.943Z,69.54
2019-05-26T20:06:33.054Z,69.65
2019-05-26T20:08:59.964Z,69.79
2019-05-26T20:11:27.104Z,69.70
2019-05-26T20:13:54.103Z,69.94
2019-05-26T20:16:21.275Z,70.21
2019-05-26T20:18:48.275Z,69.84
2019-05-26T20:21:16.824Z,70.09
2019-05-26T20:23:44.262Z,70.26
2019-05-26T20:26:11.513Z,69.74
2019-05-26T20:28:38.927Z,69.71
2019-05-26T20:31:05.991Z,69.78
2019-05-26T20:33:33.112Z,69.96
2019-05-26T20:36:00.475Z,69.85
2019-05-26T20:38:27.592Z,70.28
2019-05-26T20:40:54.866Z,70.86
2019-05-26T20:43:24.933Z,70.76
2019-05-26T20:45:50.753Z,70.41
2019-05-26T20:48:17.654Z,70.24
2019-05-26T20:50:44.890Z,70.29
2019-05-26T20:53:11.920Z,70.36
2019-05-26T20:55:38.984Z,70.60
2019-05-26T20:58:06.225Z,70.54
2019-05-26T21:00:33.396Z,70.29
2019-05-26T21:03:00.645Z,70.74
2019-05-26T21:05:27.667Z,70.63
2019-05-26T21:07:54.662Z,71.04
2019-05-26T21:10:21.675Z,71.45
2019-05-26T21:12:48.743Z,71.15
2019-05-26T21:15:16.030Z,71.43
2019-05-26T21:17:43.423Z,71.78
2019-05-26T21:20:11.627Z,71.39
2019-05-26T21:22:38.855Z,71.78
2019-05-26T21:25:06.621Z,71.44
2019-05-26T21:27:33.632Z,72.00
2019-05-26T21:30:00.486Z,72.03
2019-05-26T21:32:31.100Z,72.21
2019-05-26T21:34:56.680Z,73.15
2019-05-26T21:37:23.498Z,72.17
2019-05-26T21:39:50.439Z,72.39
2019-05-26T21:42:17.440Z,72.06
2019-05-26T21:44:44.744Z,72.11
2019-05-26T21:47:11.860Z,72.54
2019-05-26T21:49:38.898Z,73.00
2019-05-26T21:52:06.027Z,72.43
2019-05-26T21:54:33.779Z,72.49
2019-05-26T21:57:00.777Z,72.45
2019-05-26T21:59:27.800Z,72.73
2019-05-26T22:01:55.369Z,72.58
2019-05-26T22:04:22.502Z,72.82
2019-05-26T22:06:49.626Z,72.39
2019-05-26T22:09:16.694Z,72.44
2019-05-26T22:11:43.799Z,72.08
2019-05-26T22:14:11.113Z,72.43
2019-05-26T22:16:38.129Z,72.51
2019-05-26T22:19:05.412Z,72.64
2019-05-26T22:21:32.487Z,72.45
2019-05-26T22:23:59.430Z,72.50
2019-05-26T22:26:26.653Z,72.60
2019-05-26T22:28:53.543Z,72.58
2019-05-26T22:31:20.594Z,72.34
2019-05-26T22:33:47.558Z,72.49
2019-05-26T22:36:14.779Z,72.29
2019-05-26T22:38:41.713Z,72.07
2019-05-26T22:41:08.818Z,72.18
2019-05-26T22:43:36.022Z,72.28
2019-05-26T22:46:03.137Z,72.40
2019-05-26T22:48:30.699Z,72.51
2019-05-26T22:50:57.691Z,72.99
2019-05-26T22:53:24.824Z,72.89
2019-05-26T22:55:52.259Z,73.48
2019-05-26T22:58:19.385Z,73.62
2019-05-26T23:00:46.456Z,73.76
2019-05-26T23:03:13.452Z,73.56
2019-05-26T23:05:40.450Z,73.33
2019-05-26T23:08:07.716Z,73.49
2019-05-26T23:10:34.705Z,73.29
2019-05-26T23:13:01.624Z,73.33
2019-05-26T23:15:28.872Z,73.24
2019-05-26T23:17:56.667Z,73.38
2019-05-26T23:20:23.700Z,73.28
2019-05-26T23:22:50.971Z,73.38
2019-05-26T23:25:18.215Z,73.32
2019-05-26T23:27:45.324Z,73.28
2019-05-26T23:30:12.998Z,73.01
2019-05-26T23:32:40.054Z,73.30
2019-05-26T23:35:07.916Z,73.37
2019-05-26T23:37:37.771Z,73.55
2019-05-26T23:40:08.537Z,73.81
2019-05-26T23:42:35.662Z,74.02
2019-05-26T23:45:05.255Z,74.18
2019-05-26T23:47:32.563Z,74.31
2019-05-26T23:49:59.670Z,74.38
2019-05-26T23:52:27.105Z,74.45
2019-05-26T23:54:54.271Z,74.53
2019-05-26T23:57:21.512Z,74.58
2019-05-26T23:59:48.642Z,74.40
